Don Juan — WRB6521 — position and weather

sailwx.info

Track history (hours):
 
Tides and Currents Weather Stations Pressure Air Temp Water Temp Dewpoint Dewpoint Depression Visibility Wind Speed Wind Dir Waves Ship Positions

Don Juan

More information available from US FCC via Universal Licensing System and Coast Guard Vessel Documentation Center.

Last reported at 2014-Aug-31 22:23 UTC. Time now 2014-Sep-01 18:52 UTC.
Position N 33°37' W 117°55'.

Type: Pleasure craft. MMSI: 366328490.

Date/timePositionNaut miles runAvg speedWind from/ knotsBaromVisibWave heightAir tempDewpointWater temp
2014-Aug-31 22:23N 33°37' W 117°55'0 0.0
2014-Aug-31 21:11N 33°37' W 117°55'0 0.0
2014-Aug-31 20:29N 33°37' W 117°55'0 0.0
2014-Aug-31 18:29N 33°37' W 117°55'0 0.0
2014-Aug-31 11:05N 33°37' W 117°55'0 0.0
2014-Aug-31 10:29N 33°37' W 117°55'0 0.0
2014-Aug-31 07:14N 33°37' W 117°55'0 0.0
2014-Aug-31 00:32N 33°37' W 117°55'0 0.0
2014-Aug-30 23:32N 33°37' W 117°55'1 1.3
2014-Aug-30 22:31N 33°36' W 117°53'5 4.9
2014-Aug-30 21:29N 33°33' W 117°49'6 0.5
2014-Aug-30 07:32N 33°37' W 117°55'0 0.0
2014-Aug-30 03:29N 33°37' W 117°55'0 0.0
2014-Aug-30 02:29N 33°37' W 117°55'0 0.0
2014-Aug-30 01:32N 33°37' W 117°55'0 0.0
2014-Aug-30 00:32N 33°37' W 117°55'0 0.0
2014-Aug-29 23:32N 33°37' W 117°55'0 0.0
2014-Aug-29 22:26N 33°37' W 117°55'0 0.0
2014-Aug-29 21:14N 33°37' W 117°55'0 0.0
2014-Aug-29 20:26N 33°37' W 117°55'0 0.0
2014-Aug-29 17:14N 33°37' W 117°55'0 0.0
2014-Aug-29 16:32N 33°37' W 117°55'0 0.0
2014-Aug-29 11:20N 33°37' W 117°55'0 0.0
2014-Aug-29 10:32N 33°37' W 117°55'0 0.0
2014-Aug-29 07:32N 33°37' W 117°55'0 0.0
2014-Aug-29 06:17N 33°37' W 117°55'0 0.0
2014-Aug-29 05:29N 33°37' W 117°55'0 0.0
2014-Aug-29 00:04N 33°37' W 117°55'0 0.5
2014-Aug-28 23:33N 33°37' W 117°55'0 0.0
2014-Aug-28 22:33N 33°37' W 117°55'0 0.0
2014-Aug-28 17:21N 33°37' W 117°55'0 0.0
2014-Aug-28 16:33N 33°37' W 117°55'0 0.0
2014-Aug-28 15:27N 33°37' W 117°55'0 0.0
2014-Aug-28 14:03N 33°37' W 117°55'0 0.0
2014-Aug-28 07:15N 33°37' W 117°55'0 0.0
2014-Aug-27 21:27N 33°37' W 117°55'0 0.0
2014-Aug-27 20:27N 33°37' W 117°55'3 0.6
2014-Aug-27 16:24N 33°35' W 117°53'17 8.9
2014-Aug-27 14:31N 33°20' W 117°44'9 9.2
2014-Aug-27 13:33N 33°12' W 117°39'9 9.5
2014-Aug-27 12:33N 33°04' W 117°34'10 9.7
2014-Aug-27 11:33N 32°55' W 117°29'10 9.7
2014-Aug-27 10:33N 32°46' W 117°24'12 8.4
2014-Aug-27 09:06N 32°37' W 117°15'5 8.7
2014-Aug-27 08:33N 32°41' W 117°14'1 1.1
2014-Aug-27 07:25N 32°43' W 117°14'0 0.0
2014-Aug-27 06:25N 32°43' W 117°14'0 0.0
2014-Aug-27 05:33N 32°43' W 117°14'6 5.6
2014-Aug-27 04:33N 32°38' W 117°18'1110.7
2014-Aug-27 03:33N 32°41' W 117°30'7 6.0
2014-Aug-27 02:22N 32°34' W 117°33'7 8.3
2014-Aug-27 01:33N 32°28' W 117°32'12 0.2
2014-Aug-24 22:33N 32°16' W 117°30'6 6.0
2014-Aug-24 21:33N 32°19' W 117°36'7 7.0
2014-Aug-24 20:33N 32°26' W 117°39'4 3.6
2014-Aug-24 19:31N 32°25' W 117°35'7 7.5
2014-Aug-24 18:32N 32°29' W 117°28'13 9.6
2014-Aug-24 17:09N 32°37' W 117°15'8 0.9
2014-Aug-24 08:28N 32°35' W 117°23'9 9.8
2014-Aug-24 07:32N 32°30' W 117°33'3110.1
2014-Aug-24 04:28N 32°18' W 118°06'4 4.3
2014-Aug-24 03:32N 32°20' W 118°10'8 7.5
2014-Aug-24 02:31N 32°23' W 118°18'17 7.0
2014-Aug-24 00:07N 32°24' W 118°38'50 2.2
2014-Aug-23 01:32N 33°08' W 118°10'1510.9
2014-Aug-23 00:08N 33°21' W 118°01'710.6
2014-Aug-22 23:27N 33°28' W 117°57'910.0
2014-Aug-22 22:33N 33°36' W 117°53'  
Track history (hours):
 
Tides and Currents Weather Stations Pressure Air Temp Water Temp Dewpoint Dewpoint Depression Visibility Wind Speed Wind Dir Waves Ship Positions

Don Juan

More information available from US FCC via Universal Licensing System and Coast Guard Vessel Documentation Center.

Last reported at 2014-Aug-31 22:23 UTC. Time now 2014-Sep-01 18:52 UTC.
Position N 33°37' W 117°55'.

Type: Pleasure craft. MMSI: 366328490.

Date/timePositionNaut miles runAvg speedWind from/ knotsBaromVisibWave heightAir tempDewpointWater temp
2014-Aug-31 22:23N 33°37' W 117°55'0 0.0
2014-Aug-31 21:11N 33°37' W 117°55'0 0.0
2014-Aug-31 20:29N 33°37' W 117°55'0 0.0
2014-Aug-31 18:29N 33°37' W 117°55'0 0.0
2014-Aug-31 11:05N 33°37' W 117°55'0 0.0
2014-Aug-31 10:29N 33°37' W 117°55'0 0.0
2014-Aug-31 07:14N 33°37' W 117°55'0 0.0
2014-Aug-31 00:32N 33°37' W 117°55'0 0.0
2014-Aug-30 23:32N 33°37' W 117°55'1 1.3
2014-Aug-30 22:31N 33°36' W 117°53'5 4.9
2014-Aug-30 21:29N 33°33' W 117°49'6 0.5
2014-Aug-30 07:32N 33°37' W 117°55'0 0.0
2014-Aug-30 03:29N 33°37' W 117°55'0 0.0
2014-Aug-30 02:29N 33°37' W 117°55'0 0.0
2014-Aug-30 01:32N 33°37' W 117°55'0 0.0
2014-Aug-30 00:32N 33°37' W 117°55'0 0.0
2014-Aug-29 23:32N 33°37' W 117°55'0 0.0
2014-Aug-29 22:26N 33°37' W 117°55'0 0.0
2014-Aug-29 21:14N 33°37' W 117°55'0 0.0
2014-Aug-29 20:26N 33°37' W 117°55'0 0.0
2014-Aug-29 17:14N 33°37' W 117°55'0 0.0
2014-Aug-29 16:32N 33°37' W 117°55'0 0.0
2014-Aug-29 11:20N 33°37' W 117°55'0 0.0
2014-Aug-29 10:32N 33°37' W 117°55'0 0.0
2014-Aug-29 07:32N 33°37' W 117°55'0 0.0
2014-Aug-29 06:17N 33°37' W 117°55'0 0.0
2014-Aug-29 05:29N 33°37' W 117°55'0 0.0
2014-Aug-29 00:04N 33°37' W 117°55'0 0.5
2014-Aug-28 23:33N 33°37' W 117°55'0 0.0
2014-Aug-28 22:33N 33°37' W 117°55'0 0.0
2014-Aug-28 17:21N 33°37' W 117°55'0 0.0
2014-Aug-28 16:33N 33°37' W 117°55'0 0.0
2014-Aug-28 15:27N 33°37' W 117°55'0 0.0
2014-Aug-28 14:03N 33°37' W 117°55'0 0.0
2014-Aug-28 07:15N 33°37' W 117°55'0 0.0
2014-Aug-27 21:27N 33°37' W 117°55'0 0.0
2014-Aug-27 20:27N 33°37' W 117°55'3 0.6
2014-Aug-27 16:24N 33°35' W 117°53'17 8.9
2014-Aug-27 14:31N 33°20' W 117°44'9 9.2
2014-Aug-27 13:33N 33°12' W 117°39'9 9.5
2014-Aug-27 12:33N 33°04' W 117°34'10 9.7
2014-Aug-27 11:33N 32°55' W 117°29'10 9.7
2014-Aug-27 10:33N 32°46' W 117°24'12 8.4
2014-Aug-27 09:06N 32°37' W 117°15'5 8.7
2014-Aug-27 08:33N 32°41' W 117°14'1 1.1
2014-Aug-27 07:25N 32°43' W 117°14'0 0.0
2014-Aug-27 06:25N 32°43' W 117°14'0 0.0
2014-Aug-27 05:33N 32°43' W 117°14'6 5.6
2014-Aug-27 04:33N 32°38' W 117°18'1110.7
2014-Aug-27 03:33N 32°41' W 117°30'7 6.0
2014-Aug-27 02:22N 32°34' W 117°33'7 8.3
2014-Aug-27 01:33N 32°28' W 117°32'12 0.2
2014-Aug-24 22:33N 32°16' W 117°30'6 6.0
2014-Aug-24 21:33N 32°19' W 117°36'7 7.0
2014-Aug-24 20:33N 32°26' W 117°39'4 3.6
2014-Aug-24 19:31N 32°25' W 117°35'7 7.5
2014-Aug-24 18:32N 32°29' W 117°28'13 9.6
2014-Aug-24 17:09N 32°37' W 117°15'8 0.9
2014-Aug-24 08:28N 32°35' W 117°23'9 9.8
2014-Aug-24 07:32N 32°30' W 117°33'3110.1
2014-Aug-24 04:28N 32°18' W 118°06'4 4.3
2014-Aug-24 03:32N 32°20' W 118°10'8 7.5
2014-Aug-24 02:31N 32°23' W 118°18'17 7.0
2014-Aug-24 00:07N 32°24' W 118°38'50 2.2
2014-Aug-23 01:32N 33°08' W 118°10'1510.9
2014-Aug-23 00:08N 33°21' W 118°01'710.6
2014-Aug-22 23:27N 33°28' W 117°57'910.0
2014-Aug-22 22:33N 33°36' W 117°53'  

Dump ship's entire track history